createdAt,value
2018-05-09T00:02:07.516Z,5.40
2018-05-09T00:04:34.962Z,5.20
2018-05-09T00:07:02.403Z,5.63
2018-05-09T00:09:29.841Z,5.50
2018-05-09T00:11:58.046Z,5.00
2018-05-09T00:14:26.249Z,4.50
2018-05-09T00:16:54.463Z,5.33
2018-05-09T00:19:21.898Z,5.90
2018-05-09T00:21:49.334Z,5.47
2018-05-09T00:24:16.786Z,5.60
2018-05-09T00:26:44.992Z,5.37
2018-05-09T00:29:13.199Z,5.80
2018-05-09T00:31:40.629Z,5.30
2018-05-09T00:34:08.069Z,4.93
2018-05-09T00:36:35.502Z,5.30
2018-05-09T00:39:02.950Z,5.83
2018-05-09T00:41:30.382Z,5.60
2018-05-09T00:43:58.586Z,5.20
2018-05-09T00:46:26.785Z,5.60
2018-05-09T00:48:54.993Z,5.20
2018-05-09T00:51:22.435Z,5.70
2018-05-09T00:53:49.875Z,5.90
2018-05-09T00:56:17.306Z,5.67
2018-05-09T00:58:44.756Z,5.87
2018-05-09T01:01:12.910Z,5.73
2018-05-09T01:03:41.126Z,5.50
2018-05-09T01:06:08.567Z,5.90
2018-05-09T01:08:36.021Z,5.03
2018-05-09T01:11:03.450Z,5.13
2018-05-09T01:13:31.665Z,5.93
2018-05-09T01:15:59.114Z,6.63
2018-05-09T01:18:26.548Z,5.80
2018-05-09T01:20:53.982Z,5.83
2018-05-09T01:23:22.183Z,5.33
2018-05-09T01:25:50.389Z,5.90
2018-05-09T01:28:18.591Z,6.60
2018-05-09T01:30:46.789Z,5.53
2018-05-09T01:33:15.001Z,5.87
2018-05-09T01:35:42.459Z,5.30
2018-05-09T01:38:10.654Z,5.43
2018-05-09T01:40:38.858Z,5.70
2018-05-09T01:43:07.054Z,5.97
2018-05-09T01:45:35.263Z,5.77
2018-05-09T01:48:03.459Z,5.57
2018-05-09T01:50:31.662Z,5.47
2018-05-09T01:52:59.103Z,6.87
2018-05-09T01:55:26.546Z,5.83
2018-05-09T01:57:53.981Z,5.67
2018-05-09T02:00:21.423Z,5.30
2018-05-09T02:02:48.854Z,5.90
2018-05-09T02:05:17.071Z,5.73
2018-05-09T02:07:44.510Z,6.00
2018-05-09T02:10:11.946Z,5.37
2018-05-09T02:12:39.387Z,6.07
2018-05-09T02:15:06.821Z,5.90
2018-05-09T02:17:34.270Z,5.40
2018-05-09T02:20:02.467Z,6.10
2018-05-09T02:22:29.910Z,5.90
2018-05-09T02:24:57.357Z,5.97
2018-05-09T02:27:24.786Z,6.30
2018-05-09T02:29:52.222Z,6.07
2018-05-09T02:32:19.659Z,5.97
2018-05-09T02:34:47.871Z,6.53
2018-05-09T02:37:16.075Z,5.90
2018-05-09T02:39:44.278Z,5.63
2018-05-09T02:42:11.723Z,6.30
2018-05-09T02:44:39.168Z,6.00
2018-05-09T02:47:06.602Z,5.93
2018-05-09T02:49:34.804Z,6.23
2018-05-09T02:52:03.006Z,5.67
2018-05-09T02:54:30.446Z,6.40
2018-05-09T02:56:57.882Z,6.40
2018-05-09T02:59:25.340Z,6.30
2018-05-09T03:01:53.538Z,5.80
2018-05-09T03:04:21.755Z,6.70
2018-05-09T03:06:49.193Z,6.43
2018-05-09T03:09:16.648Z,5.80
2018-05-09T03:11:44.081Z,6.17
2018-05-09T03:14:12.283Z,6.10
2018-05-09T03:16:40.485Z,6.47
2018-05-09T03:19:07.915Z,7.00
2018-05-09T03:21:35.357Z,7.13
2018-05-09T03:24:02.795Z,6.70
2018-05-09T03:26:30.242Z,5.87
2018-05-09T03:28:57.675Z,5.97
2018-05-09T03:31:26.194Z,6.17
2018-05-09T03:33:54.386Z,5.60
2018-05-09T03:36:22.598Z,5.63
2018-05-09T03:38:50.029Z,6.30
2018-05-09T03:41:17.478Z,6.13
2018-05-09T03:43:44.916Z,5.13
2018-05-09T03:46:12.358Z,5.83
2018-05-09T03:48:40.606Z,6.43
2018-05-09T03:51:08.809Z,5.93
2018-05-09T03:53:37.019Z,7.00
2018-05-09T03:56:04.454Z,6.43
2018-05-09T03:58:31.901Z,5.87
2018-05-09T04:00:59.338Z,6.17
2018-05-09T04:03:39.512Z,6.50
2018-05-09T04:06:18.891Z,6.00
2018-05-09T04:08:59.113Z,6.60
2018-05-09T04:11:26.568Z,6.03
2018-05-09T04:13:54.830Z,5.97
2018-05-09T04:16:22.275Z,6.17
2018-05-09T04:18:49.711Z,5.90
2018-05-09T04:21:17.931Z,5.70
2018-05-09T04:23:45.366Z,6.57
2018-05-09T04:26:12.810Z,6.80
2018-05-09T04:28:40.252Z,6.17
2018-05-09T04:31:08.464Z,6.20
2018-05-09T04:33:35.894Z,6.07
2018-05-09T04:36:03.342Z,6.60
2018-05-09T04:38:30.774Z,5.77
2018-05-09T04:43:32.086Z,6.20
2018-05-09T04:45:59.522Z,6.27
2018-05-09T04:48:26.951Z,5.33
2018-05-09T04:50:54.394Z,6.10
2018-05-09T04:53:21.844Z,6.20
2018-05-09T04:55:50.050Z,5.50
2018-05-09T04:58:18.250Z,6.13
2018-05-09T05:00:46.470Z,6.43
2018-05-09T05:03:13.907Z,6.17
2018-05-09T05:05:41.342Z,6.00
2018-05-09T05:08:08.775Z,5.70
2018-05-09T05:10:36.217Z,6.30
2018-05-09T05:13:03.654Z,6.50
2018-05-09T05:15:31.091Z,5.53
2018-05-09T05:17:58.527Z,6.47
2018-05-09T05:20:25.963Z,6.30
2018-05-09T05:22:53.411Z,6.53
2018-05-09T05:25:20.860Z,6.37
2018-05-09T05:27:49.058Z,7.20
2018-05-09T05:35:10.504Z,7.20
2018-05-09T05:37:37.954Z,7.10
2018-05-09T05:40:06.155Z,7.40
2018-05-09T05:42:33.590Z,7.40
2018-05-09T05:45:01.118Z,8.20
2018-05-09T05:47:28.487Z,8.30
2018-05-09T05:49:56.692Z,7.50
2018-05-09T05:52:24.898Z,6.67
2018-05-09T05:54:52.329Z,6.93
2018-05-09T05:57:19.774Z,7.50
2018-05-09T05:59:47.205Z,7.50
2018-05-09T06:02:14.652Z,8.63
2018-05-09T06:04:42.088Z,7.90
2018-05-09T06:07:10.307Z,7.50
2018-05-09T06:09:37.747Z,7.13
2018-05-09T06:12:05.205Z,7.50
2018-05-09T06:14:32.642Z,7.70
2018-05-09T06:17:00.082Z,8.87
2018-05-09T06:19:27.527Z,7.40
2018-05-09T06:21:54.975Z,7.97
2018-05-09T06:24:23.170Z,7.80
2018-05-09T06:26:51.387Z,8.00
2018-05-09T06:29:18.823Z,9.20
2018-05-09T06:31:46.281Z,8.27
2018-05-09T06:34:13.715Z,7.83
2018-05-09T06:36:41.938Z,7.63
2018-05-09T06:39:09.366Z,7.93
2018-05-09T06:41:36.896Z,7.40
2018-05-09T06:44:04.263Z,8.80
2018-05-09T06:46:31.705Z,7.17
2018-05-09T06:48:59.150Z,7.77
2018-05-09T06:51:26.598Z,7.00
2018-05-09T06:53:54.799Z,8.40
2018-05-09T06:56:23.023Z,8.40
2018-05-09T06:58:50.462Z,8.90
2018-05-09T07:01:18.682Z,7.80
2018-05-09T07:03:46.881Z,8.10
2018-05-09T07:06:14.343Z,7.85
2018-05-09T07:08:41.761Z,6.60
2018-05-09T07:11:09.218Z,7.05
2018-05-09T07:13:37.458Z,6.77
2018-05-09T07:16:04.912Z,6.20
2018-05-09T07:18:32.356Z,5.70
2018-05-09T07:20:59.794Z,6.70
2018-05-09T07:23:27.247Z,6.47
2018-05-09T07:25:54.697Z,6.68
2018-05-09T07:28:22.146Z,6.12
2018-05-09T07:30:49.605Z,5.85
2018-05-09T07:33:17.047Z,4.80
2018-05-09T07:35:44.495Z,4.63
2018-05-09T07:38:11.934Z,5.37
2018-05-09T07:40:39.379Z,4.50
2018-05-09T07:43:06.817Z,4.80
2018-05-09T07:45:34.263Z,5.27
2018-05-09T07:48:02.465Z,4.23
2018-05-09T07:50:30.677Z,4.10
2018-05-09T07:52:58.116Z,3.80
2018-05-09T07:55:25.648Z,4.00
2018-05-09T07:57:52.990Z,3.97
2018-05-09T08:00:20.443Z,3.83
2018-05-09T08:02:47.882Z,3.80
2018-05-09T08:05:15.323Z,3.23
2018-05-09T08:07:42.767Z,7.80
2018-05-09T08:10:10.198Z,4.53
2018-05-09T08:12:38.410Z,5.53
2018-05-09T08:15:06.611Z,4.63
2018-05-09T08:17:34.823Z,4.93
2018-05-09T08:20:02.259Z,3.73
2018-05-09T08:22:29.698Z,4.07
2018-05-09T08:24:57.134Z,4.10
2018-05-09T08:27:24.591Z,4.40
2018-05-09T08:29:52.031Z,4.50
2018-05-09T08:32:19.477Z,4.73
2018-05-09T08:34:46.956Z,5.03
2018-05-09T08:37:14.359Z,4.17
2018-05-09T08:39:42.559Z,5.10
2018-05-09T08:42:10.766Z,4.13
2018-05-09T08:44:38.198Z,4.40
2018-05-09T08:47:05.657Z,4.70
2018-05-09T08:49:33.088Z,4.70
2018-05-09T08:52:01.298Z,5.73
2018-05-09T08:54:29.502Z,5.10
2018-05-09T08:56:56.952Z,4.93
2018-05-09T08:59:24.410Z,7.10
2018-05-09T09:01:51.843Z,4.70
2018-05-09T09:04:20.061Z,4.23
2018-05-09T09:06:47.497Z,3.93
2018-05-09T09:09:14.934Z,5.23
2018-05-09T09:11:42.375Z,4.47
2018-05-09T09:14:10.595Z,4.83
2018-05-09T09:16:38.021Z,4.50
2018-05-09T09:19:05.464Z,5.00
2018-05-09T09:21:32.899Z,4.40
2018-05-09T09:24:00.345Z,5.20
2018-05-09T09:26:27.792Z,5.00
2018-05-09T09:28:55.231Z,4.83
2018-05-09T09:31:22.665Z,4.57
2018-05-09T09:33:50.115Z,4.67
2018-05-09T09:36:18.324Z,4.33
2018-05-09T09:38:46.535Z,4.37
2018-05-09T09:41:13.967Z,4.20
2018-05-09T09:43:41.411Z,4.17
2018-05-09T09:46:08.845Z,3.87
2018-05-09T09:48:37.065Z,3.93
2018-05-09T09:51:05.259Z,4.70
2018-05-09T09:53:33.462Z,4.77
2018-05-09T09:56:00.897Z,4.13
2018-05-09T09:58:28.334Z,5.03
2018-05-09T10:00:55.766Z,4.10
2018-05-09T10:03:23.214Z,4.63
2018-05-09T10:05:50.650Z,4.80
2018-05-09T10:08:18.866Z,4.07
2018-05-09T10:10:46.302Z,3.87
2018-05-09T10:13:13.747Z,4.67
2018-05-09T10:15:41.188Z,3.13
2018-05-09T10:18:08.618Z,3.50
2018-05-09T10:20:36.063Z,4.60
2018-05-09T10:23:04.278Z,4.23
2018-05-09T10:25:31.710Z,4.40
2018-05-09T10:27:59.174Z,4.30
2018-05-09T10:30:26.604Z,4.23
2018-05-09T10:32:54.811Z,3.90
2018-05-09T10:35:22.246Z,4.00
2018-05-09T10:37:49.690Z,4.10
2018-05-09T10:40:17.345Z,4.80
2018-05-09T10:45:12.540Z,4.37
2018-05-09T10:47:39.983Z,4.70
2018-05-09T10:50:08.182Z,4.73
2018-05-09T10:52:35.610Z,3.73
2018-05-09T10:55:03.050Z,3.83
2018-05-09T10:57:31.246Z,3.90
2018-05-09T10:59:59.456Z,4.27
2018-05-09T11:02:27.651Z,3.77
2018-05-09T11:04:55.856Z,3.57
2018-05-09T11:07:24.051Z,3.33
2018-05-09T11:09:52.263Z,3.30
2018-05-09T11:12:20.462Z,3.73
2018-05-09T11:14:48.675Z,3.00
2018-05-09T11:17:16.115Z,3.40
2018-05-09T11:19:43.553Z,3.20
2018-05-09T11:22:10.994Z,3.80
2018-05-09T11:24:39.214Z,2.80
2018-05-09T11:27:07.425Z,3.80
2018-05-09T11:29:34.871Z,3.70
2018-05-09T11:32:02.293Z,2.90
2018-05-09T11:34:29.744Z,2.80
2018-05-09T11:36:57.947Z,3.40
2018-05-09T11:39:26.158Z,3.00
2018-05-09T11:41:53.598Z,3.03
2018-05-09T11:44:21.034Z,3.90
2018-05-09T11:46:48.466Z,3.50
2018-05-09T11:49:15.916Z,3.93
2018-05-09T11:51:43.355Z,3.33
2018-05-09T11:54:11.554Z,3.77
2018-05-09T11:56:38.982Z,3.57
2018-05-09T11:59:06.434Z,4.43
2018-05-09T12:01:33.874Z,3.50
2018-05-09T12:04:01.305Z,3.63
2018-05-09T12:06:28.742Z,3.80
2018-05-09T12:08:56.952Z,3.40
2018-05-09T12:11:25.159Z,5.17
2018-05-09T12:13:52.614Z,3.93
2018-05-09T12:16:20.051Z,3.20
2018-05-09T12:18:47.491Z,4.73
2018-05-09T12:21:15.691Z,3.63
2018-05-09T12:23:43.898Z,3.90
2018-05-09T12:26:11.337Z,3.63
2018-05-09T12:28:38.774Z,3.00
2018-05-09T12:31:06.215Z,3.30
2018-05-09T12:33:33.658Z,3.30
2018-05-09T12:36:01.085Z,3.27
2018-05-09T12:38:29.291Z,3.10
2018-05-09T12:40:57.486Z,2.90
2018-05-09T12:43:25.691Z,3.53
2018-05-09T12:45:53.896Z,2.80
2018-05-09T12:48:22.116Z,2.70
2018-05-09T12:50:49.552Z,2.90
2018-05-09T12:53:16.995Z,3.30
2018-05-09T12:55:44.430Z,3.10
2018-05-09T12:58:12.631Z,2.80
2018-05-09T13:00:40.839Z,2.83
2018-05-09T13:03:08.278Z,3.13
2018-05-09T13:05:35.723Z,3.20
2018-05-09T13:08:03.163Z,2.80
2018-05-09T13:10:30.614Z,2.63
2018-05-09T13:12:58.050Z,2.40
2018-05-09T13:15:25.490Z,2.53
2018-05-09T13:17:52.944Z,2.80
2018-05-09T13:20:20.386Z,3.17
2018-05-09T13:22:48.588Z,2.40
2018-05-09T13:25:16.810Z,3.87
2018-05-09T13:27:44.250Z,2.67
2018-05-09T13:30:11.694Z,2.83
2018-05-09T13:32:39.134Z,2.60
2018-05-09T13:35:07.339Z,2.47
2018-05-09T13:37:34.778Z,2.40
2018-05-09T13:40:02.293Z,2.47
2018-05-09T13:42:29.655Z,2.47
2018-05-09T13:44:57.864Z,2.40
2018-05-09T13:47:26.067Z,2.83
